sensor_id;sensor_type;location;lat;lon;timestamp;temperature;humidity
69731;SHT31;56996;48.138;11.538;2023-10-19T00:00:55;9.96;76.27
69731;SHT31;56996;48.138;11.538;2023-10-19T00:03:23;9.93;76.86
69731;SHT31;56996;48.138;11.538;2023-10-19T00:05:51;9.89;76.83
69731;SHT31;56996;48.138;11.538;2023-10-19T00:08:17;9.89;76.84
69731;SHT31;56996;48.138;11.538;2023-10-19T00:10:47;9.93;76.71
69731;SHT31;56996;48.138;11.538;2023-10-19T00:13:36;9.97;76.78
69731;SHT31;56996;48.138;11.538;2023-10-19T00:16:05;10.01;76.90
69731;SHT31;56996;48.138;11.538;2023-10-19T00:18:44;10.01;76.76
69731;SHT31;56996;48.138;11.538;2023-10-19T00:21:15;9.99;76.64
69731;SHT31;56996;48.138;11.538;2023-10-19T00:23:47;10.00;76.65
69731;SHT31;56996;48.138;11.538;2023-10-19T00:26:15;10.02;76.59
69731;SHT31;56996;48.138;11.538;2023-10-19T00:28:52;10.02;76.56
69731;SHT31;56996;48.138;11.538;2023-10-19T00:31:23;10.04;76.55
69731;SHT31;56996;48.138;11.538;2023-10-19T00:33:56;10.06;76.53
69731;SHT31;56996;48.138;11.538;2023-10-19T00:36:23;10.05;76.93
69731;SHT31;56996;48.138;11.538;2023-10-19T00:38:51;10.06;77.17
69731;SHT31;56996;48.138;11.538;2023-10-19T00:41:24;10.06;77.09
69731;SHT31;56996;48.138;11.538;2023-10-19T00:43:56;10.07;76.86
69731;SHT31;56996;48.138;11.538;2023-10-19T00:46:38;10.13;76.81
69731;SHT31;56996;48.138;11.538;2023-10-19T00:49:09;10.17;76.79
69731;SHT31;56996;48.138;11.538;2023-10-19T00:51:43;10.22;76.61
69731;SHT31;56996;48.138;11.538;2023-10-19T00:54:15;10.25;76.56
69731;SHT31;56996;48.138;11.538;2023-10-19T00:56:53;10.29;76.42
69731;SHT31;56996;48.138;11.538;2023-10-19T00:59:25;10.32;76.32
69731;SHT31;56996;48.138;11.538;2023-10-19T01:01:57;10.36;76.29
69731;SHT31;56996;48.138;11.538;2023-10-19T01:04:44;10.37;76.19
69731;SHT31;56996;48.138;11.538;2023-10-19T01:07:33;10.39;76.10
69731;SHT31;56996;48.138;11.538;2023-10-19T01:10:06;10.41;76.20
69731;SHT31;56996;48.138;11.538;2023-10-19T01:12:35;10.42;76.31
69731;SHT31;56996;48.138;11.538;2023-10-19T01:15:14;10.40;76.30
69731;SHT31;56996;48.138;11.538;2023-10-19T01:17:44;10.41;76.36
69731;SHT31;56996;48.138;11.538;2023-10-19T01:20:22;10.39;76.37
69731;SHT31;56996;48.138;11.538;2023-10-19T01:28:08;10.36;76.70
69731;SHT31;56996;48.138;11.538;2023-10-19T01:30:37;10.35;76.69
69731;SHT31;56996;48.138;11.538;2023-10-19T01:33:05;10.32;76.82
69731;SHT31;56996;48.138;11.538;2023-10-19T01:35:40;10.31;76.94
69731;SHT31;56996;48.138;11.538;2023-10-19T01:38:26;10.30;77.01
69731;SHT31;56996;48.138;11.538;2023-10-19T01:40:57;10.29;77.07
69731;SHT31;56996;48.138;11.538;2023-10-19T01:43:32;10.29;77.00
69731;SHT31;56996;48.138;11.538;2023-10-19T01:46:00;10.29;77.03
69731;SHT31;56996;48.138;11.538;2023-10-19T01:48:31;10.23;77.29
69731;SHT31;56996;48.138;11.538;2023-10-19T01:51:03;10.17;77.42
69731;SHT31;56996;48.138;11.538;2023-10-19T01:53:32;10.13;77.54
69731;SHT31;56996;48.138;11.538;2023-10-19T01:56:03;10.13;77.56
69731;SHT31;56996;48.138;11.538;2023-10-19T01:58:32;10.11;77.86
69731;SHT31;56996;48.138;11.538;2023-10-19T02:01:03;10.01;78.02
69731;SHT31;56996;48.138;11.538;2023-10-19T02:03:41;9.90;78.45
69731;SHT31;56996;48.138;11.538;2023-10-19T02:06:09;9.84;78.59
69731;SHT31;56996;48.138;11.538;2023-10-19T02:08:59;9.85;78.50
69731;SHT31;56996;48.138;11.538;2023-10-19T02:11:45;9.91;78.35
69731;SHT31;56996;48.138;11.538;2023-10-19T02:14:15;9.96;78.37
69731;SHT31;56996;48.138;11.538;2023-10-19T02:16:46;10.01;78.35
69731;SHT31;56996;48.138;11.538;2023-10-19T02:19:19;10.06;78.29
69731;SHT31;56996;48.138;11.538;2023-10-19T02:21:47;10.09;78.26
69731;SHT31;56996;48.138;11.538;2023-10-19T02:24:19;10.12;78.24
69731;SHT31;56996;48.138;11.538;2023-10-19T02:26:49;10.09;78.32
69731;SHT31;56996;48.138;11.538;2023-10-19T02:29:18;10.02;78.61
69731;SHT31;56996;48.138;11.538;2023-10-19T02:31:45;9.94;79.08
69731;SHT31;56996;48.138;11.538;2023-10-19T02:34:14;9.88;79.16
69731;SHT31;56996;48.138;11.538;2023-10-19T02:36:42;9.81;79.35
69731;SHT31;56996;48.138;11.538;2023-10-19T02:39:11;9.77;79.49
69731;SHT31;56996;48.138;11.538;2023-10-19T02:41:42;9.81;79.39
69731;SHT31;56996;48.138;11.538;2023-10-19T02:44:15;9.90;79.27
69731;SHT31;56996;48.138;11.538;2023-10-19T02:46:44;9.96;79.17
69731;SHT31;56996;48.138;11.538;2023-10-19T02:49:13;10.03;79.06
69731;SHT31;56996;48.138;11.538;2023-10-19T02:51:46;10.10;78.92
69731;SHT31;56996;48.138;11.538;2023-10-19T02:54:16;10.13;78.78
69731;SHT31;56996;48.138;11.538;2023-10-19T02:56:52;10.16;78.71
69731;SHT31;56996;48.138;11.538;2023-10-19T02:59:23;10.20;78.72
69731;SHT31;56996;48.138;11.538;2023-10-19T03:01:55;10.22;78.65
69731;SHT31;56996;48.138;11.538;2023-10-19T03:04:29;10.22;78.65
69731;SHT31;56996;48.138;11.538;2023-10-19T03:06:57;10.23;78.70
69731;SHT31;56996;48.138;11.538;2023-10-19T03:09:24;10.25;78.65
69731;SHT31;56996;48.138;11.538;2023-10-19T03:11:56;10.28;78.60
69731;SHT31;56996;48.138;11.538;2023-10-19T03:14:31;10.28;78.61
69731;SHT31;56996;48.138;11.538;2023-10-19T03:16:59;10.28;78.61
69731;SHT31;56996;48.138;11.538;2023-10-19T03:19:27;10.27;78.58
69731;SHT31;56996;48.138;11.538;2023-10-19T03:21:55;10.27;78.64
69731;SHT31;56996;48.138;11.538;2023-10-19T03:24:26;10.26;78.61
69731;SHT31;56996;48.138;11.538;2023-10-19T03:27:10;10.24;78.71
69731;SHT31;56996;48.138;11.538;2023-10-19T03:29:49;10.24;78.77
69731;SHT31;56996;48.138;11.538;2023-10-19T03:32:22;10.24;78.80
69731;SHT31;56996;48.138;11.538;2023-10-19T03:34:54;10.24;78.80
69731;SHT31;56996;48.138;11.538;2023-10-19T03:37:23;10.24;78.88
69731;SHT31;56996;48.138;11.538;2023-10-19T03:39:52;10.25;78.93
69731;SHT31;56996;48.138;11.538;2023-10-19T03:42:23;10.27;78.98
69731;SHT31;56996;48.138;11.538;2023-10-19T03:44:59;10.27;78.98
69731;SHT31;56996;48.138;11.538;2023-10-19T03:47:34;10.29;79.01
69731;SHT31;56996;48.138;11.538;2023-10-19T03:50:03;10.30;79.07
69731;SHT31;56996;48.138;11.538;2023-10-19T03:52:35;10.31;79.12
69731;SHT31;56996;48.138;11.538;2023-10-19T03:55:05;10.31;79.12
69731;SHT31;56996;48.138;11.538;2023-10-19T03:57:44;10.30;79.19
69731;SHT31;56996;48.138;11.538;2023-10-19T04:00:22;10.31;79.27
69731;SHT31;56996;48.138;11.538;2023-10-19T04:02:54;10.32;79.31
69731;SHT31;56996;48.138;11.538;2023-10-19T04:05:22;10.35;79.40
69731;SHT31;56996;48.138;11.538;2023-10-19T04:07:49;10.38;79.46
69731;SHT31;56996;48.138;11.538;2023-10-19T04:10:21;10.41;79.50
69731;SHT31;56996;48.138;11.538;2023-10-19T04:13:01;10.44;79.43
69731;SHT31;56996;48.138;11.538;2023-10-19T04:15:30;10.47;79.40
69731;SHT31;56996;48.138;11.538;2023-10-19T04:18:01;10.50;79.35
69731;SHT31;56996;48.138;11.538;2023-10-19T04:20:37;10.52;79.39
69731;SHT31;56996;48.138;11.538;2023-10-19T04:23:14;10.55;79.29
69731;SHT31;56996;48.138;11.538;2023-10-19T04:25:42;10.59;79.34
69731;SHT31;56996;48.138;11.538;2023-10-19T04:28:13;10.61;79.31
69731;SHT31;56996;48.138;11.538;2023-10-19T04:30:40;10.65;79.32
69731;SHT31;56996;48.138;11.538;2023-10-19T04:33:07;10.69;79.34
69731;SHT31;56996;48.138;11.538;2023-10-19T04:35:37;10.72;79.34
69731;SHT31;56996;48.138;11.538;2023-10-19T04:38:08;10.74;79.23
69731;SHT31;56996;48.138;11.538;2023-10-19T04:40:35;10.77;79.20
69731;SHT31;56996;48.138;11.538;2023-10-19T04:43:02;10.78;79.20
69731;SHT31;56996;48.138;11.538;2023-10-19T04:45:33;10.81;79.17
69731;SHT31;56996;48.138;11.538;2023-10-19T04:47:59;10.83;79.10
69731;SHT31;56996;48.138;11.538;2023-10-19T04:50:29;10.85;79.19
69731;SHT31;56996;48.138;11.538;2023-10-19T04:52:56;10.89;79.20
69731;SHT31;56996;48.138;11.538;2023-10-19T04:55:23;10.91;79.15
69731;SHT31;56996;48.138;11.538;2023-10-19T04:57:49;10.95;79.17
69731;SHT31;56996;48.138;11.538;2023-10-19T05:00:17;10.96;79.18
69731;SHT31;56996;48.138;11.538;2023-10-19T05:02:47;10.97;79.20
69731;SHT31;56996;48.138;11.538;2023-10-19T05:05:14;10.98;79.19
69731;SHT31;56996;48.138;11.538;2023-10-19T05:07:44;10.99;79.10
69731;SHT31;56996;48.138;11.538;2023-10-19T05:10:11;11.02;79.05
69731;SHT31;56996;48.138;11.538;2023-10-19T05:12:38;11.03;78.98
69731;SHT31;56996;48.138;11.538;2023-10-19T05:15:05;11.05;78.86
69731;SHT31;56996;48.138;11.538;2023-10-19T05:17:32;11.06;78.81
69731;SHT31;56996;48.138;11.538;2023-10-19T05:19:59;11.08;78.80
69731;SHT31;56996;48.138;11.538;2023-10-19T05:22:26;11.09;78.80
69731;SHT31;56996;48.138;11.538;2023-10-19T05:24:56;11.10;78.86
69731;SHT31;56996;48.138;11.538;2023-10-19T05:27:23;11.10;78.88
69731;SHT31;56996;48.138;11.538;2023-10-19T05:29:50;11.10;78.98
69731;SHT31;56996;48.138;11.538;2023-10-19T05:32:17;11.11;79.00
69731;SHT31;56996;48.138;11.538;2023-10-19T05:34:45;11.12;79.00
69731;SHT31;56996;48.138;11.538;2023-10-19T05:37:11;11.12;79.02
69731;SHT31;56996;48.138;11.538;2023-10-19T05:39:39;11.12;79.04
69731;SHT31;56996;48.138;11.538;2023-10-19T05:42:05;11.13;79.00
69731;SHT31;56996;48.138;11.538;2023-10-19T05:44:32;11.14;79.05
69731;SHT31;56996;48.138;11.538;2023-10-19T05:47:00;11.15;79.00
69731;SHT31;56996;48.138;11.538;2023-10-19T05:49:27;11.15;78.99
69731;SHT31;56996;48.138;11.538;2023-10-19T05:52:00;11.18;78.94
69731;SHT31;56996;48.138;11.538;2023-10-19T05:54:29;11.18;78.90
69731;SHT31;56996;48.138;11.538;2023-10-19T05:56:57;11.21;78.90
69731;SHT31;56996;48.138;11.538;2023-10-19T05:59:25;11.23;78.86
69731;SHT31;56996;48.138;11.538;2023-10-19T06:01:53;11.23;78.88
69731;SHT31;56996;48.138;11.538;2023-10-19T06:04:20;11.26;78.89
69731;SHT31;56996;48.138;11.538;2023-10-19T06:06:47;11.27;78.89
69731;SHT31;56996;48.138;11.538;2023-10-19T06:09:15;11.30;78.90
69731;SHT31;56996;48.138;11.538;2023-10-19T06:11:44;11.32;78.90
69731;SHT31;56996;48.138;11.538;2023-10-19T06:14:11;11.32;79.00
69731;SHT31;56996;48.138;11.538;2023-10-19T06:16:38;11.33;79.00
69731;SHT31;56996;48.138;11.538;2023-10-19T06:19:05;11.34;79.00
69731;SHT31;56996;48.138;11.538;2023-10-19T06:21:32;11.36;79.00
69731;SHT31;56996;48.138;11.538;2023-10-19T06:24:00;11.39;78.99
69731;SHT31;56996;48.138;11.538;2023-10-19T06:26:29;11.41;78.92
69731;SHT31;56996;48.138;11.538;2023-10-19T06:28:56;11.45;78.89
69731;SHT31;56996;48.138;11.538;2023-10-19T06:31:26;11.51;78.77
69731;SHT31;56996;48.138;11.538;2023-10-19T06:33:56;11.57;78.69
69731;SHT31;56996;48.138;11.538;2023-10-19T06:36:24;11.63;78.56
69731;SHT31;56996;48.138;11.538;2023-10-19T06:38:51;11.69;78.40
69731;SHT31;56996;48.138;11.538;2023-10-19T06:41:18;11.74;78.34
69731;SHT31;56996;48.138;11.538;2023-10-19T06:43:45;11.80;78.27
69731;SHT31;56996;48.138;11.538;2023-10-19T06:46:13;11.85;78.14
69731;SHT31;56996;48.138;11.538;2023-10-19T06:48:41;11.91;78.09
69731;SHT31;56996;48.138;11.538;2023-10-19T06:51:09;11.97;77.95
69731;SHT31;56996;48.138;11.538;2023-10-19T06:53:36;12.03;77.82
69731;SHT31;56996;48.138;11.538;2023-10-19T06:56:03;12.07;77.77
69731;SHT31;56996;48.138;11.538;2023-10-19T06:58:31;12.13;77.79
69731;SHT31;56996;48.138;11.538;2023-10-19T07:00:58;12.19;78.00
69731;SHT31;56996;48.138;11.538;2023-10-19T07:03:32;12.25;77.92
69731;SHT31;56996;48.138;11.538;2023-10-19T07:05:59;12.29;77.54
69731;SHT31;56996;48.138;11.538;2023-10-19T07:08:26;12.35;77.41
69731;SHT31;56996;48.138;11.538;2023-10-19T07:10:53;12.44;77.22
69731;SHT31;56996;48.138;11.538;2023-10-19T07:13:20;12.52;77.03
69731;SHT31;56996;48.138;11.538;2023-10-19T07:15:48;12.62;76.91
69731;SHT31;56996;48.138;11.538;2023-10-19T07:18:18;12.73;76.71
69731;SHT31;56996;48.138;11.538;2023-10-19T07:20:45;12.85;76.56
69731;SHT31;56996;48.138;11.538;2023-10-19T07:23:15;12.96;76.43
69731;SHT31;56996;48.138;11.538;2023-10-19T07:25:46;13.08;76.17
69731;SHT31;56996;48.138;11.538;2023-10-19T07:28:15;13.20;75.93
69731;SHT31;56996;48.138;11.538;2023-10-19T07:30:43;13.30;75.64
69731;SHT31;56996;48.138;11.538;2023-10-19T07:33:10;13.40;75.40
69731;SHT31;56996;48.138;11.538;2023-10-19T07:35:44;13.50;75.22
69731;SHT31;56996;48.138;11.538;2023-10-19T07:38:13;13.61;75.09
69731;SHT31;56996;48.138;11.538;2023-10-19T07:40:41;13.74;74.85
69731;SHT31;56996;48.138;11.538;2023-10-19T07:43:10;13.85;74.61
69731;SHT31;56996;48.138;11.538;2023-10-19T07:45:36;13.96;74.31
69731;SHT31;56996;48.138;11.538;2023-10-19T07:48:04;14.04;74.24
69731;SHT31;56996;48.138;11.538;2023-10-19T07:50:33;14.15;74.17
69731;SHT31;56996;48.138;11.538;2023-10-19T07:53:02;14.27;74.04
69731;SHT31;56996;48.138;11.538;2023-10-19T07:55:29;14.37;73.81
69731;SHT31;56996;48.138;11.538;2023-10-19T07:58:00;14.42;73.59
69731;SHT31;56996;48.138;11.538;2023-10-19T08:00:30;14.47;73.77
69731;SHT31;56996;48.138;11.538;2023-10-19T08:02:57;14.51;73.77
69731;SHT31;56996;48.138;11.538;2023-10-19T08:05:25;14.54;73.81
69731;SHT31;56996;48.138;11.538;2023-10-19T08:07:52;14.58;73.92
69731;SHT31;56996;48.138;11.538;2023-10-19T08:10:20;14.61;73.88
69731;SHT31;56996;48.138;11.538;2023-10-19T08:12:47;14.67;73.86
69731;SHT31;56996;48.138;11.538;2023-10-19T08:15:15;14.72;73.69
69731;SHT31;56996;48.138;11.538;2023-10-19T08:17:45;14.79;73.43
69731;SHT31;56996;48.138;11.538;2023-10-19T08:20:14;14.86;73.27
69731;SHT31;56996;48.138;11.538;2023-10-19T08:22:52;14.91;73.20
69731;SHT31;56996;48.138;11.538;2023-10-19T08:25:24;14.98;73.15
69731;SHT31;56996;48.138;11.538;2023-10-19T08:28:09;15.12;72.84
69731;SHT31;56996;48.138;11.538;2023-10-19T08:30:37;15.27;72.51
69731;SHT31;56996;48.138;11.538;2023-10-19T08:33:04;15.39;71.88
69731;SHT31;56996;48.138;11.538;2023-10-19T08:35:34;15.46;71.79
69731;SHT31;56996;48.138;11.538;2023-10-19T08:38:02;15.55;71.67
69731;SHT31;56996;48.138;11.538;2023-10-19T08:40:36;15.62;71.89
69731;SHT31;56996;48.138;11.538;2023-10-19T08:43:04;15.74;71.56
69731;SHT31;56996;48.138;11.538;2023-10-19T08:45:34;15.81;71.33
69731;SHT31;56996;48.138;11.538;2023-10-19T08:48:01;15.90;71.26
69731;SHT31;56996;48.138;11.538;2023-10-19T08:50:29;15.93;70.84
69731;SHT31;56996;48.138;11.538;2023-10-19T08:52:58;15.96;70.70
69731;SHT31;56996;48.138;11.538;2023-10-19T08:55:31;16.00;70.59
69731;SHT31;56996;48.138;11.538;2023-10-19T08:58:04;16.04;70.34
69731;SHT31;56996;48.138;11.538;2023-10-19T09:00:45;16.10;70.64
69731;SHT31;56996;48.138;11.538;2023-10-19T09:03:21;16.22;70.87
69731;SHT31;56996;48.138;11.538;2023-10-19T09:05:52;16.31;71.40
69731;SHT31;56996;48.138;11.538;2023-10-19T09:08:20;16.39;71.00
69731;SHT31;56996;48.138;11.538;2023-10-19T09:10:49;16.42;71.04
69731;SHT31;56996;48.138;11.538;2023-10-19T09:13:20;16.46;70.69
69731;SHT31;56996;48.138;11.538;2023-10-19T09:15:50;16.50;70.22
69731;SHT31;56996;48.138;11.538;2023-10-19T09:18:24;16.54;69.72
69731;SHT31;56996;48.138;11.538;2023-10-19T09:20:56;16.58;69.52
69731;SHT31;56996;48.138;11.538;2023-10-19T09:23:34;16.63;69.75
69731;SHT31;56996;48.138;11.538;2023-10-19T09:26:04;16.65;69.20
69731;SHT31;56996;48.138;11.538;2023-10-19T09:28:35;16.61;68.69
69731;SHT31;56996;48.138;11.538;2023-10-19T09:31:04;16.59;68.78
69731;SHT31;56996;48.138;11.538;2023-10-19T09:33:33;16.59;68.81
69731;SHT31;56996;48.138;11.538;2023-10-19T09:36:01;16.58;68.69
69731;SHT31;56996;48.138;11.538;2023-10-19T09:38:43;16.56;68.74
69731;SHT31;56996;48.138;11.538;2023-10-19T09:41:18;16.52;69.11
69731;SHT31;56996;48.138;11.538;2023-10-19T09:43:48;16.49;69.35
69731;SHT31;56996;48.138;11.538;2023-10-19T09:46:20;16.53;69.62
69731;SHT31;56996;48.138;11.538;2023-10-19T09:48:50;16.57;69.71
69731;SHT31;56996;48.138;11.538;2023-10-19T09:51:18;16.66;69.05
69731;SHT31;56996;48.138;11.538;2023-10-19T09:53:51;16.88;68.94
69731;SHT31;56996;48.138;11.538;2023-10-19T09:56:34;17.08;68.28
69731;SHT31;56996;48.138;11.538;2023-10-19T09:59:05;17.51;67.76
69731;SHT31;56996;48.138;11.538;2023-10-19T10:04:40;19.44;63.81
69731;SHT31;56996;48.138;11.538;2023-10-19T10:07:09;19.72;62.60
69731;SHT31;56996;48.138;11.538;2023-10-19T10:09:36;19.64;61.27
69731;SHT31;56996;48.138;11.538;2023-10-19T10:12:22;19.41;61.13
69731;SHT31;56996;48.138;11.538;2023-10-19T10:17:35;19.29;61.80
69731;SHT31;56996;48.138;11.538;2023-10-19T10:22:43;19.44;61.71
69731;SHT31;56996;48.138;11.538;2023-10-19T10:25:27;19.51;61.83
69731;SHT31;56996;48.138;11.538;2023-10-19T10:27:56;19.57;61.29
69731;SHT31;56996;48.138;11.538;2023-10-19T10:30:23;19.60;60.95
69731;SHT31;56996;48.138;11.538;2023-10-19T10:32:50;19.59;61.18
69731;SHT31;56996;48.138;11.538;2023-10-19T10:38:08;19.55;60.44
69731;SHT31;56996;48.138;11.538;2023-10-19T10:40:42;19.54;60.69
69731;SHT31;56996;48.138;11.538;2023-10-19T10:43:14;19.54;60.35
69731;SHT31;56996;48.138;11.538;2023-10-19T10:45:43;19.57;60.05
69731;SHT31;56996;48.138;11.538;2023-10-19T10:48:13;19.59;60.09
69731;SHT31;56996;48.138;11.538;2023-10-19T10:50:41;19.59;60.01
69731;SHT31;56996;48.138;11.538;2023-10-19T10:53:10;19.60;60.12
69731;SHT31;56996;48.138;11.538;2023-10-19T10:55:38;19.51;60.03
69731;SHT31;56996;48.138;11.538;2023-10-19T10:58:06;19.37;60.22
69731;SHT31;56996;48.138;11.538;2023-10-19T11:00:33;19.33;60.36
69731;SHT31;56996;48.138;11.538;2023-10-19T11:03:02;19.37;60.46
69731;SHT31;56996;48.138;11.538;2023-10-19T11:05:33;19.43;60.54
69731;SHT31;56996;48.138;11.538;2023-10-19T11:08:11;19.61;60.00
69731;SHT31;56996;48.138;11.538;2023-10-19T11:10:42;19.79;59.42
69731;SHT31;56996;48.138;11.538;2023-10-19T11:13:12;19.90;59.31
69731;SHT31;56996;48.138;11.538;2023-10-19T11:15:53;20.04;59.14
69731;SHT31;56996;48.138;11.538;2023-10-19T11:18:29;20.13;58.61
69731;SHT31;56996;48.138;11.538;2023-10-19T11:21:09;20.18;58.09
69731;SHT31;56996;48.138;11.538;2023-10-19T11:26:14;20.02;58.46
69731;SHT31;56996;48.138;11.538;2023-10-19T11:28:46;19.90;59.04
69731;SHT31;56996;48.138;11.538;2023-10-19T11:31:21;19.81;59.13
69731;SHT31;56996;48.138;11.538;2023-10-19T11:33:50;19.76;58.80
69731;SHT31;56996;48.138;11.538;2023-10-19T11:36:20;19.70;58.90
69731;SHT31;56996;48.138;11.538;2023-10-19T11:38:49;19.69;58.96
69731;SHT31;56996;48.138;11.538;2023-10-19T11:41:22;19.66;59.12
69731;SHT31;56996;48.138;11.538;2023-10-19T11:43:49;19.58;59.56
69731;SHT31;56996;48.138;11.538;2023-10-19T11:46:16;19.58;60.36
69731;SHT31;56996;48.138;11.538;2023-10-19T11:48:44;19.61;60.57
69731;SHT31;56996;48.138;11.538;2023-10-19T11:51:11;19.65;60.87
69731;SHT31;56996;48.138;11.538;2023-10-19T11:53:41;19.67;61.26
69731;SHT31;56996;48.138;11.538;2023-10-19T11:56:09;19.65;61.58
69731;SHT31;56996;48.138;11.538;2023-10-19T11:58:43;19.64;61.39
69731;SHT31;56996;48.138;11.538;2023-10-19T12:01:14;19.57;61.48
69731;SHT31;56996;48.138;11.538;2023-10-19T12:03:44;19.58;61.36
69731;SHT31;56996;48.138;11.538;2023-10-19T12:06:15;19.58;61.98
69731;SHT31;56996;48.138;11.538;2023-10-19T12:08:46;19.61;61.98
69731;SHT31;56996;48.138;11.538;2023-10-19T12:11:13;19.70;61.76
69731;SHT31;56996;48.138;11.538;2023-10-19T12:13:45;19.79;61.64
69731;SHT31;56996;48.138;11.538;2023-10-19T12:16:14;19.88;61.68
69731;SHT31;56996;48.138;11.538;2023-10-19T12:18:46;19.94;61.03
69731;SHT31;56996;48.138;11.538;2023-10-19T12:21:15;19.88;61.20
69731;SHT31;56996;48.138;11.538;2023-10-19T12:23:45;19.82;61.16
69731;SHT31;56996;48.138;11.538;2023-10-19T12:26:18;19.73;61.39
69731;SHT31;56996;48.138;11.538;2023-10-19T12:28:46;19.66;61.48
69731;SHT31;56996;48.138;11.538;2023-10-19T12:31:15;19.66;61.40
69731;SHT31;56996;48.138;11.538;2023-10-19T12:33:46;19.69;61.34
69731;SHT31;56996;48.138;11.538;2023-10-19T12:36:12;19.76;61.32
69731;SHT31;56996;48.138;11.538;2023-10-19T12:38:54;19.85;61.11
69731;SHT31;56996;48.138;11.538;2023-10-19T12:41:21;19.97;60.96
69731;SHT31;56996;48.138;11.538;2023-10-19T12:43:48;20.01;60.61
69731;SHT31;56996;48.138;11.538;2023-10-19T12:46:19;19.99;60.85
69731;SHT31;56996;48.138;11.538;2023-10-19T12:48:51;19.99;60.94
69731;SHT31;56996;48.138;11.538;2023-10-19T12:51:19;20.03;60.74
69731;SHT31;56996;48.138;11.538;2023-10-19T12:53:53;20.09;60.37
69731;SHT31;56996;48.138;11.538;2023-10-19T12:56:21;20.14;59.91
69731;SHT31;56996;48.138;11.538;2023-10-19T12:58:55;20.06;60.18
69731;SHT31;56996;48.138;11.538;2023-10-19T13:01:22;20.00;60.15
69731;SHT31;56996;48.138;11.538;2023-10-19T13:03:50;19.95;59.94
69731;SHT31;56996;48.138;11.538;2023-10-19T13:06:17;19.89;59.93
69731;SHT31;56996;48.138;11.538;2023-10-19T13:08:46;19.83;60.18
69731;SHT31;56996;48.138;11.538;2023-10-19T13:11:13;19.83;60.23
69731;SHT31;56996;48.138;11.538;2023-10-19T13:13:44;19.83;60.36
69731;SHT31;56996;48.138;11.538;2023-10-19T13:16:10;19.79;60.39
69731;SHT31;56996;48.138;11.538;2023-10-19T13:18:37;19.76;60.61
69731;SHT31;56996;48.138;11.538;2023-10-19T13:21:06;19.75;60.58
69731;SHT31;56996;48.138;11.538;2023-10-19T13:23:38;19.73;60.16
69731;SHT31;56996;48.138;11.538;2023-10-19T13:26:05;19.68;60.17
69731;SHT31;56996;48.138;11.538;2023-10-19T13:28:44;19.60;60.29
69731;SHT31;56996;48.138;11.538;2023-10-19T13:31:13;19.55;60.21
69731;SHT31;56996;48.138;11.538;2023-10-19T13:33:41;19.52;60.50
69731;SHT31;56996;48.138;11.538;2023-10-19T13:36:08;19.49;60.43
69731;SHT31;56996;48.138;11.538;2023-10-19T13:38:35;19.45;60.40
69731;SHT31;56996;48.138;11.538;2023-10-19T13:41:05;19.44;60.47
69731;SHT31;56996;48.138;11.538;2023-10-19T13:43:41;19.46;60.50
69731;SHT31;56996;48.138;11.538;2023-10-19T13:46:09;19.48;60.50
69731;SHT31;56996;48.138;11.538;2023-10-19T13:48:36;19.47;60.54
69731;SHT31;56996;48.138;11.538;2023-10-19T13:51:05;19.40;60.47
69731;SHT31;56996;48.138;11.538;2023-10-19T13:53:40;19.31;60.62
69731;SHT31;56996;48.138;11.538;2023-10-19T13:56:12;19.25;60.73
69731;SHT31;56996;48.138;11.538;2023-10-19T13:58:41;19.20;60.85
69731;SHT31;56996;48.138;11.538;2023-10-19T14:01:08;19.12;61.07
69731;SHT31;56996;48.138;11.538;2023-10-19T14:03:38;19.05;61.16
69731;SHT31;56996;48.138;11.538;2023-10-19T14:06:11;19.00;61.24
69731;SHT31;56996;48.138;11.538;2023-10-19T14:08:40;18.97;61.51
69731;SHT31;56996;48.138;11.538;2023-10-19T14:11:07;18.91;61.68
69731;SHT31;56996;48.138;11.538;2023-10-19T14:13:34;18.81;62.08
69731;SHT31;56996;48.138;11.538;2023-10-19T14:16:05;18.73;62.56
69731;SHT31;56996;48.138;11.538;2023-10-19T14:18:35;18.68;63.13
69731;SHT31;56996;48.138;11.538;2023-10-19T14:21:16;18.62;63.65
69731;SHT31;56996;48.138;11.538;2023-10-19T14:23:45;18.55;64.20
69731;SHT31;56996;48.138;11.538;2023-10-19T14:26:14;18.49;64.73
69731;SHT31;56996;48.138;11.538;2023-10-19T14:28:41;18.41;65.28
69731;SHT31;56996;48.138;11.538;2023-10-19T14:31:08;18.32;65.61
69731;SHT31;56996;48.138;11.538;2023-10-19T14:33:35;18.23;66.04
69731;SHT31;56996;48.138;11.538;2023-10-19T14:36:05;18.15;66.66
69731;SHT31;56996;48.138;11.538;2023-10-19T14:38:33;18.11;66.58
69731;SHT31;56996;48.138;11.538;2023-10-19T14:41:00;18.14;66.38
69731;SHT31;56996;48.138;11.538;2023-10-19T14:43:27;18.18;66.69
69731;SHT31;56996;48.138;11.538;2023-10-19T14:45:56;18.17;66.47
69731;SHT31;56996;48.138;11.538;2023-10-19T14:48:26;18.13;66.73
69731;SHT31;56996;48.138;11.538;2023-10-19T14:50:55;18.08;67.16
69731;SHT31;56996;48.138;11.538;2023-10-19T14:53:24;18.01;67.35
69731;SHT31;56996;48.138;11.538;2023-10-19T14:55:51;17.91;67.65
69731;SHT31;56996;48.138;11.538;2023-10-19T14:58:19;17.85;67.88
69731;SHT31;56996;48.138;11.538;2023-10-19T15:00:46;17.80;68.32
69731;SHT31;56996;48.138;11.538;2023-10-19T15:03:21;17.72;69.34
69731;SHT31;56996;48.138;11.538;2023-10-19T15:05:50;17.65;70.17
69731;SHT31;56996;48.138;11.538;2023-10-19T15:08:19;17.56;70.80
69731;SHT31;56996;48.138;11.538;2023-10-19T15:10:46;17.49;71.20
69731;SHT31;56996;48.138;11.538;2023-10-19T15:13:12;17.42;71.52
69731;SHT31;56996;48.138;11.538;2023-10-19T15:15:39;17.39;71.45
69731;SHT31;56996;48.138;11.538;2023-10-19T15:18:07;17.35;71.51
69731;SHT31;56996;48.138;11.538;2023-10-19T15:20:34;17.31;71.65
69731;SHT31;56996;48.138;11.538;2023-10-19T15:23:01;17.24;72.17
69731;SHT31;56996;48.138;11.538;2023-10-19T15:25:28;17.17;72.14
69731;SHT31;56996;48.138;11.538;2023-10-19T15:27:55;17.10;72.46
69731;SHT31;56996;48.138;11.538;2023-10-19T15:30:22;17.03;72.76
69731;SHT31;56996;48.138;11.538;2023-10-19T15:32:51;16.95;72.83
69731;SHT31;56996;48.138;11.538;2023-10-19T15:35:22;16.92;72.96
69731;SHT31;56996;48.138;11.538;2023-10-19T15:37:50;16.88;73.15
69731;SHT31;56996;48.138;11.538;2023-10-19T15:40:23;16.89;72.97
69731;SHT31;56996;48.138;11.538;2023-10-19T15:42:52;16.90;73.23
69731;SHT31;56996;48.138;11.538;2023-10-19T15:45:21;16.86;73.51
69731;SHT31;56996;48.138;11.538;2023-10-19T15:47:49;16.80;73.57
69731;SHT31;56996;48.138;11.538;2023-10-19T15:50:19;16.73;73.22
69731;SHT31;56996;48.138;11.538;2023-10-19T15:52:46;16.70;73.05
69731;SHT31;56996;48.138;11.538;2023-10-19T15:55:13;16.69;72.98